sensor_id;sensor_type;location;lat;lon;timestamp;temperature;humidity
4904;DHT22;2467;48.142;11.616;2022-07-23T00:00:02;25.90;93.00
4904;DHT22;2467;48.142;11.616;2022-07-23T00:00:35;25.80;93.10
4904;DHT22;2467;48.142;11.616;2022-07-23T00:01:10;25.80;93.20
4904;DHT22;2467;48.142;11.616;2022-07-23T00:01:43;25.80;93.00
4904;DHT22;2467;48.142;11.616;2022-07-23T00:02:15;25.70;92.90
4904;DHT22;2467;48.142;11.616;2022-07-23T00:02:47;25.70;92.80
4904;DHT22;2467;48.142;11.616;2022-07-23T00:03:20;25.70;92.80
4904;DHT22;2467;48.142;11.616;2022-07-23T00:03:52;25.70;93.00
4904;DHT22;2467;48.142;11.616;2022-07-23T00:04:25;25.70;93.00
4904;DHT22;2467;48.142;11.616;2022-07-23T00:04:58;25.70;93.00
4904;DHT22;2467;48.142;11.616;2022-07-23T00:05:30;25.70;93.00
4904;DHT22;2467;48.142;11.616;2022-07-23T00:06:02;25.60;92.90
4904;DHT22;2467;48.142;11.616;2022-07-23T00:06:40;25.70;93.10
4904;DHT22;2467;48.142;11.616;2022-07-23T00:07:12;25.60;93.10
4904;DHT22;2467;48.142;11.616;2022-07-23T00:07:44;25.60;93.30
4904;DHT22;2467;48.142;11.616;2022-07-23T00:08:17;25.60;93.70
4904;DHT22;2467;48.142;11.616;2022-07-23T00:08:49;25.60;93.50
4904;DHT22;2467;48.142;11.616;2022-07-23T00:09:22;25.50;93.60
4904;DHT22;2467;48.142;11.616;2022-07-23T00:09:54;25.50;93.70
4904;DHT22;2467;48.142;11.616;2022-07-23T00:10:26;25.40;93.70
4904;DHT22;2467;48.142;11.616;2022-07-23T00:10:58;25.40;93.50
4904;DHT22;2467;48.142;11.616;2022-07-23T00:11:32;25.40;93.50
4904;DHT22;2467;48.142;11.616;2022-07-23T00:12:05;25.40;93.50
4904;DHT22;2467;48.142;11.616;2022-07-23T00:12:39;25.40;93.60
4904;DHT22;2467;48.142;11.616;2022-07-23T00:13:22;25.30;93.50
4904;DHT22;2467;48.142;11.616;2022-07-23T00:13:55;25.40;93.40
4904;DHT22;2467;48.142;11.616;2022-07-23T00:14:30;25.30;93.40
4904;DHT22;2467;48.142;11.616;2022-07-23T00:15:02;25.30;93.40
4904;DHT22;2467;48.142;11.616;2022-07-23T00:15:36;25.30;93.50
4904;DHT22;2467;48.142;11.616;2022-07-23T00:16:08;25.30;93.60
4904;DHT22;2467;48.142;11.616;2022-07-23T00:16:40;25.30;93.50
4904;DHT22;2467;48.142;11.616;2022-07-23T00:17:13;25.30;93.40
4904;DHT22;2467;48.142;11.616;2022-07-23T00:17:45;25.20;93.40
4904;DHT22;2467;48.142;11.616;2022-07-23T00:18:17;25.20;93.40
4904;DHT22;2467;48.142;11.616;2022-07-23T00:18:50;25.20;93.30
4904;DHT22;2467;48.142;11.616;2022-07-23T00:19:22;25.20;93.30
4904;DHT22;2467;48.142;11.616;2022-07-23T00:19:54;25.20;93.10
4904;DHT22;2467;48.142;11.616;2022-07-23T00:20:27;25.20;93.10
4904;DHT22;2467;48.142;11.616;2022-07-23T00:20:58;25.20;93.10
4904;DHT22;2467;48.142;11.616;2022-07-23T00:21:30;25.20;93.20
4904;DHT22;2467;48.142;11.616;2022-07-23T00:22:03;25.10;93.20
4904;DHT22;2467;48.142;11.616;2022-07-23T00:22:35;25.10;93.10
4904;DHT22;2467;48.142;11.616;2022-07-23T00:23:07;25.20;93.20
4904;DHT22;2467;48.142;11.616;2022-07-23T00:23:40;25.10;93.20
4904;DHT22;2467;48.142;11.616;2022-07-23T00:24:12;25.10;93.10
4904;DHT22;2467;48.142;11.616;2022-07-23T00:24:44;25.20;93.10
4904;DHT22;2467;48.142;11.616;2022-07-23T00:25:37;25.20;93.00
4904;DHT22;2467;48.142;11.616;2022-07-23T00:26:08;25.20;92.80
4904;DHT22;2467;48.142;11.616;2022-07-23T00:26:42;25.20;92.50
4904;DHT22;2467;48.142;11.616;2022-07-23T00:27:15;25.20;92.10
4904;DHT22;2467;48.142;11.616;2022-07-23T00:27:47;25.20;91.70
4904;DHT22;2467;48.142;11.616;2022-07-23T00:28:20;25.20;91.60
4904;DHT22;2467;48.142;11.616;2022-07-23T00:28:51;25.20;91.30
4904;DHT22;2467;48.142;11.616;2022-07-23T00:29:23;25.10;90.80
4904;DHT22;2467;48.142;11.616;2022-07-23T00:29:56;25.10;90.60
4904;DHT22;2467;48.142;11.616;2022-07-23T00:30:29;25.10;90.40
4904;DHT22;2467;48.142;11.616;2022-07-23T00:31:02;25.10;90.50
4904;DHT22;2467;48.142;11.616;2022-07-23T00:31:35;25.10;90.70
4904;DHT22;2467;48.142;11.616;2022-07-23T00:32:07;25.10;90.70
4904;DHT22;2467;48.142;11.616;2022-07-23T00:32:46;25.10;90.60
4904;DHT22;2467;48.142;11.616;2022-07-23T00:33:26;25.20;90.30
4904;DHT22;2467;48.142;11.616;2022-07-23T00:33:58;25.20;90.00
4904;DHT22;2467;48.142;11.616;2022-07-23T00:34:33;25.20;89.50
4904;DHT22;2467;48.142;11.616;2022-07-23T00:35:06;25.20;89.00
4904;DHT22;2467;48.142;11.616;2022-07-23T00:35:39;25.20;88.70
4904;DHT22;2467;48.142;11.616;2022-07-23T00:36:12;25.20;88.90
4904;DHT22;2467;48.142;11.616;2022-07-23T00:36:45;25.10;88.30
4904;DHT22;2467;48.142;11.616;2022-07-23T00:37:16;25.10;88.00
4904;DHT22;2467;48.142;11.616;2022-07-23T00:37:49;25.10;88.20
4904;DHT22;2467;48.142;11.616;2022-07-23T00:38:22;25.10;88.40
4904;DHT22;2467;48.142;11.616;2022-07-23T00:38:54;25.10;88.50
4904;DHT22;2467;48.142;11.616;2022-07-23T00:39:26;25.10;88.70
4904;DHT22;2467;48.142;11.616;2022-07-23T00:39:58;25.10;88.70
4904;DHT22;2467;48.142;11.616;2022-07-23T00:40:31;25.00;88.90
4904;DHT22;2467;48.142;11.616;2022-07-23T00:41:03;25.00;89.10
4904;DHT22;2467;48.142;11.616;2022-07-23T00:41:35;25.00;89.40
4904;DHT22;2467;48.142;11.616;2022-07-23T00:42:07;25.00;89.50
4904;DHT22;2467;48.142;11.616;2022-07-23T00:42:40;25.00;89.70
4904;DHT22;2467;48.142;11.616;2022-07-23T00:43:12;25.00;89.80
4904;DHT22;2467;48.142;11.616;2022-07-23T00:43:45;25.00;89.80
4904;DHT22;2467;48.142;11.616;2022-07-23T00:44:19;25.00;89.80
4904;DHT22;2467;48.142;11.616;2022-07-23T00:44:51;25.00;89.90
4904;DHT22;2467;48.142;11.616;2022-07-23T00:45:24;25.00;89.20
4904;DHT22;2467;48.142;11.616;2022-07-23T00:45:56;25.00;88.80
4904;DHT22;2467;48.142;11.616;2022-07-23T00:46:28;25.00;88.90
4904;DHT22;2467;48.142;11.616;2022-07-23T00:47:01;25.00;89.10
4904;DHT22;2467;48.142;11.616;2022-07-23T00:47:33;25.00;89.00
4904;DHT22;2467;48.142;11.616;2022-07-23T00:48:05;25.00;88.80
4904;DHT22;2467;48.142;11.616;2022-07-23T00:48:38;25.00;88.40
4904;DHT22;2467;48.142;11.616;2022-07-23T00:49:10;25.00;88.60
4904;DHT22;2467;48.142;11.616;2022-07-23T00:49:42;25.00;87.40
4904;DHT22;2467;48.142;11.616;2022-07-23T00:50:15;25.00;86.90
4904;DHT22;2467;48.142;11.616;2022-07-23T00:50:47;25.00;87.00
4904;DHT22;2467;48.142;11.616;2022-07-23T00:51:19;25.00;87.20
4904;DHT22;2467;48.142;11.616;2022-07-23T00:51:52;25.00;87.60
4904;DHT22;2467;48.142;11.616;2022-07-23T00:52:24;25.00;87.90
4904;DHT22;2467;48.142;11.616;2022-07-23T00:52:57;25.00;89.10
4904;DHT22;2467;48.142;11.616;2022-07-23T00:53:29;24.90;89.80
4904;DHT22;2467;48.142;11.616;2022-07-23T00:54:03;24.90;91.00
4904;DHT22;2467;48.142;11.616;2022-07-23T00:54:36;24.80;91.90
4904;DHT22;2467;48.142;11.616;2022-07-23T00:55:09;24.80;92.40
4904;DHT22;2467;48.142;11.616;2022-07-23T00:55:41;24.80;92.90
4904;DHT22;2467;48.142;11.616;2022-07-23T00:56:14;24.70;93.10
4904;DHT22;2467;48.142;11.616;2022-07-23T00:56:46;24.70;93.60
4904;DHT22;2467;48.142;11.616;2022-07-23T00:57:18;24.60;93.90
4904;DHT22;2467;48.142;11.616;2022-07-23T00:58:01;24.60;94.10
4904;DHT22;2467;48.142;11.616;2022-07-23T00:58:35;24.50;94.60
4904;DHT22;2467;48.142;11.616;2022-07-23T00:59:08;24.50;95.00
4904;DHT22;2467;48.142;11.616;2022-07-23T00:59:40;24.50;95.40
4904;DHT22;2467;48.142;11.616;2022-07-23T01:00:14;24.50;95.80
4904;DHT22;2467;48.142;11.616;2022-07-23T01:00:47;24.40;96.10
4904;DHT22;2467;48.142;11.616;2022-07-23T01:01:19;24.40;96.50
4904;DHT22;2467;48.142;11.616;2022-07-23T01:01:51;24.40;96.70
4904;DHT22;2467;48.142;11.616;2022-07-23T01:02:24;24.40;96.90
4904;DHT22;2467;48.142;11.616;2022-07-23T01:02:56;24.40;97.10
4904;DHT22;2467;48.142;11.616;2022-07-23T01:03:28;24.40;97.30
4904;DHT22;2467;48.142;11.616;2022-07-23T01:04:02;24.30;97.50
4904;DHT22;2467;48.142;11.616;2022-07-23T01:04:36;24.30;97.80
4904;DHT22;2467;48.142;11.616;2022-07-23T01:05:09;24.30;98.10
4904;DHT22;2467;48.142;11.616;2022-07-23T01:05:42;24.30;98.30
4904;DHT22;2467;48.142;11.616;2022-07-23T01:06:14;24.30;98.60
4904;DHT22;2467;48.142;11.616;2022-07-23T01:06:46;24.30;98.70
4904;DHT22;2467;48.142;11.616;2022-07-23T01:07:19;24.30;98.70
4904;DHT22;2467;48.142;11.616;2022-07-23T01:07:52;24.30;98.80
4904;DHT22;2467;48.142;11.616;2022-07-23T01:08:27;24.30;98.80
4904;DHT22;2467;48.142;11.616;2022-07-23T01:09:00;24.20;98.90
4904;DHT22;2467;48.142;11.616;2022-07-23T01:09:32;24.20;98.90
4904;DHT22;2467;48.142;11.616;2022-07-23T01:10:06;24.20;99.10
4904;DHT22;2467;48.142;11.616;2022-07-23T01:11:00;24.10;99.40
4904;DHT22;2467;48.142;11.616;2022-07-23T01:11:33;24.20;99.60
4904;DHT22;2467;48.142;11.616;2022-07-23T01:12:06;24.10;99.30
4904;DHT22;2467;48.142;11.616;2022-07-23T01:12:39;24.10;99.10
4904;DHT22;2467;48.142;11.616;2022-07-23T01:13:12;24.10;99.50
4904;DHT22;2467;48.142;11.616;2022-07-23T01:13:44;24.10;99.50
4904;DHT22;2467;48.142;11.616;2022-07-23T01:14:18;24.10;99.50
4904;DHT22;2467;48.142;11.616;2022-07-23T01:14:54;24.10;99.60
4904;DHT22;2467;48.142;11.616;2022-07-23T01:15:26;24.10;99.70
4904;DHT22;2467;48.142;11.616;2022-07-23T01:15:59;24.10;99.90
4904;DHT22;2467;48.142;11.616;2022-07-23T01:16:31;24.10;99.90
4904;DHT22;2467;48.142;11.616;2022-07-23T01:17:04;24.10;99.90
4904;DHT22;2467;48.142;11.616;2022-07-23T01:17:37;24.00;99.90
4904;DHT22;2467;48.142;11.616;2022-07-23T01:18:09;24.10;99.90
4904;DHT22;2467;48.142;11.616;2022-07-23T01:18:41;24.10;99.90
4904;DHT22;2467;48.142;11.616;2022-07-23T01:19:15;24.10;99.90
4904;DHT22;2467;48.142;11.616;2022-07-23T01:19:47;24.10;99.90
4904;DHT22;2467;48.142;11.616;2022-07-23T01:20:19;24.00;99.90
4904;DHT22;2467;48.142;11.616;2022-07-23T01:20:53;24.10;99.90
4904;DHT22;2467;48.142;11.616;2022-07-23T01:21:25;24.00;99.90
4904;DHT22;2467;48.142;11.616;2022-07-23T01:21:57;24.00;99.90
4904;DHT22;2467;48.142;11.616;2022-07-23T01:22:32;24.00;99.90
4904;DHT22;2467;48.142;11.616;2022-07-23T01:23:04;24.00;99.90
4904;DHT22;2467;48.142;11.616;2022-07-23T01:23:35;24.00;99.90
4904;DHT22;2467;48.142;11.616;2022-07-23T01:24:10;24.00;99.90
4904;DHT22;2467;48.142;11.616;2022-07-23T01:24:42;24.00;99.90
4904;DHT22;2467;48.142;11.616;2022-07-23T01:25:14;24.00;99.90
4904;DHT22;2467;48.142;11.616;2022-07-23T01:25:53;24.00;99.90
4904;DHT22;2467;48.142;11.616;2022-07-23T01:26:25;24.00;99.90
4904;DHT22;2467;48.142;11.616;2022-07-23T01:26:57;24.00;99.90
4904;DHT22;2467;48.142;11.616;2022-07-23T01:27:30;24.00;99.90
4904;DHT22;2467;48.142;11.616;2022-07-23T01:28:02;23.90;99.90
4904;DHT22;2467;48.142;11.616;2022-07-23T01:28:34;23.90;99.90
4904;DHT22;2467;48.142;11.616;2022-07-23T01:29:07;24.00;99.90
4904;DHT22;2467;48.142;11.616;2022-07-23T01:29:39;23.90;99.90
4904;DHT22;2467;48.142;11.616;2022-07-23T01:30:12;24.00;99.90
4904;DHT22;2467;48.142;11.616;2022-07-23T01:30:46;23.90;99.90
4904;DHT22;2467;48.142;11.616;2022-07-23T01:31:18;23.90;99.90
4904;DHT22;2467;48.142;11.616;2022-07-23T01:32:00;23.80;99.90
4904;DHT22;2467;48.142;11.616;2022-07-23T01:32:32;23.70;99.90
4904;DHT22;2467;48.142;11.616;2022-07-23T01:33:05;23.70;99.90
4904;DHT22;2467;48.142;11.616;2022-07-23T01:33:37;23.60;99.90
4904;DHT22;2467;48.142;11.616;2022-07-23T01:34:09;23.60;99.90
4904;DHT22;2467;48.142;11.616;2022-07-23T01:34:42;23.40;99.90
4904;DHT22;2467;48.142;11.616;2022-07-23T01:35:14;23.20;99.90
4904;DHT22;2467;48.142;11.616;2022-07-23T01:35:46;23.10;99.90
4904;DHT22;2467;48.142;11.616;2022-07-23T01:36:19;23.10;99.90
4904;DHT22;2467;48.142;11.616;2022-07-23T01:36:51;23.00;99.90
4904;DHT22;2467;48.142;11.616;2022-07-23T01:37:23;22.90;99.90
4904;DHT22;2467;48.142;11.616;2022-07-23T01:37:57;22.80;99.90
4904;DHT22;2467;48.142;11.616;2022-07-23T01:38:29;22.80;99.90
4904;DHT22;2467;48.142;11.616;2022-07-23T01:39:03;22.70;99.90
4904;DHT22;2467;48.142;11.616;2022-07-23T01:39:37;22.50;99.90
4904;DHT22;2467;48.142;11.616;2022-07-23T01:40:09;22.40;99.90
4904;DHT22;2467;48.142;11.616;2022-07-23T01:40:41;22.30;99.90
4904;DHT22;2467;48.142;11.616;2022-07-23T01:41:16;22.30;99.90
4904;DHT22;2467;48.142;11.616;2022-07-23T01:41:48;22.20;99.90
4904;DHT22;2467;48.142;11.616;2022-07-23T01:42:22;22.20;99.90
4904;DHT22;2467;48.142;11.616;2022-07-23T01:43:13;22.10;99.90
4904;DHT22;2467;48.142;11.616;2022-07-23T01:43:46;22.10;99.90
4904;DHT22;2467;48.142;11.616;2022-07-23T01:44:19;22.10;99.90
4904;DHT22;2467;48.142;11.616;2022-07-23T01:44:51;22.00;99.90
4904;DHT22;2467;48.142;11.616;2022-07-23T01:45:23;22.00;99.90
4904;DHT22;2467;48.142;11.616;2022-07-23T01:45:55;22.00;99.90
4904;DHT22;2467;48.142;11.616;2022-07-23T01:46:28;21.90;99.90
4904;DHT22;2467;48.142;11.616;2022-07-23T01:47:00;21.90;99.90
4904;DHT22;2467;48.142;11.616;2022-07-23T01:47:32;21.90;99.90
4904;DHT22;2467;48.142;11.616;2022-07-23T01:48:05;21.90;99.90
4904;DHT22;2467;48.142;11.616;2022-07-23T01:48:41;21.80;99.90
4904;DHT22;2467;48.142;11.616;2022-07-23T01:49:14;21.80;99.90
4904;DHT22;2467;48.142;11.616;2022-07-23T01:49:46;21.70;99.90
4904;DHT22;2467;48.142;11.616;2022-07-23T01:50:19;21.70;99.90
4904;DHT22;2467;48.142;11.616;2022-07-23T01:50:50;21.70;99.90
4904;DHT22;2467;48.142;11.616;2022-07-23T01:51:22;21.60;99.90
4904;DHT22;2467;48.142;11.616;2022-07-23T01:51:55;21.60;99.90
4904;DHT22;2467;48.142;11.616;2022-07-23T01:52:33;21.60;99.90
4904;DHT22;2467;48.142;11.616;2022-07-23T01:53:06;21.50;99.90
4904;DHT22;2467;48.142;11.616;2022-07-23T01:53:39;21.50;99.90
4904;DHT22;2467;48.142;11.616;2022-07-23T01:54:11;21.40;99.90
4904;DHT22;2467;48.142;11.616;2022-07-23T01:54:43;21.50;99.90
4904;DHT22;2467;48.142;11.616;2022-07-23T01:55:15;21.40;99.90
4904;DHT22;2467;48.142;11.616;2022-07-23T01:55:49;21.40;99.90
4904;DHT22;2467;48.142;11.616;2022-07-23T01:56:21;21.30;99.90
4904;DHT22;2467;48.142;11.616;2022-07-23T01:56:53;21.30;99.90
4904;DHT22;2467;48.142;11.616;2022-07-23T01:57:26;21.30;99.90
4904;DHT22;2467;48.142;11.616;2022-07-23T01:57:58;21.20;99.90
4904;DHT22;2467;48.142;11.616;2022-07-23T01:58:30;21.20;99.90
4904;DHT22;2467;48.142;11.616;2022-07-23T01:59:03;21.20;99.90
4904;DHT22;2467;48.142;11.616;2022-07-23T01:59:35;21.20;99.90
4904;DHT22;2467;48.142;11.616;2022-07-23T02:00:09;21.20;99.90
4904;DHT22;2467;48.142;11.616;2022-07-23T02:00:42;21.20;99.90
4904;DHT22;2467;48.142;11.616;2022-07-23T02:01:14;21.10;99.90
4904;DHT22;2467;48.142;11.616;2022-07-23T02:01:46;21.10;99.90
4904;DHT22;2467;48.142;11.616;2022-07-23T02:02:19;21.10;99.90
4904;DHT22;2467;48.142;11.616;2022-07-23T02:02:51;21.10;99.90
4904;DHT22;2467;48.142;11.616;2022-07-23T02:03:23;21.00;99.90
4904;DHT22;2467;48.142;11.616;2022-07-23T02:03:55;21.00;99.90
4904;DHT22;2467;48.142;11.616;2022-07-23T02:04:27;20.90;99.90
4904;DHT22;2467;48.142;11.616;2022-07-23T02:05:00;20.90;99.90
4904;DHT22;2467;48.142;11.616;2022-07-23T02:05:33;20.90;99.90
4904;DHT22;2467;48.142;11.616;2022-07-23T02:06:05;20.90;99.90
4904;DHT22;2467;48.142;11.616;2022-07-23T02:06:37;20.90;99.90
4904;DHT22;2467;48.142;11.616;2022-07-23T02:07:09;20.80;99.90
4904;DHT22;2467;48.142;11.616;2022-07-23T02:07:41;20.90;99.90
4904;DHT22;2467;48.142;11.616;2022-07-23T02:08:15;20.90;99.90
4904;DHT22;2467;48.142;11.616;2022-07-23T02:08:47;20.90;99.90
4904;DHT22;2467;48.142;11.616;2022-07-23T02:09:19;20.90;99.90
4904;DHT22;2467;48.142;11.616;2022-07-23T02:09:51;20.90;99.90
4904;DHT22;2467;48.142;11.616;2022-07-23T02:10:24;20.80;99.90
4904;DHT22;2467;48.142;11.616;2022-07-23T02:10:56;20.80;99.90
4904;DHT22;2467;48.142;11.616;2022-07-23T02:11:28;20.80;99.90
4904;DHT22;2467;48.142;11.616;2022-07-23T02:12:00;20.80;99.90
4904;DHT22;2467;48.142;11.616;2022-07-23T02:12:35;20.70;99.90
4904;DHT22;2467;48.142;11.616;2022-07-23T02:13:07;20.70;99.90
4904;DHT22;2467;48.142;11.616;2022-07-23T02:13:40;20.70;99.90
4904;DHT22;2467;48.142;11.616;2022-07-23T02:14:12;20.70;99.90
4904;DHT22;2467;48.142;11.616;2022-07-23T02:14:43;20.70;99.90
4904;DHT22;2467;48.142;11.616;2022-07-23T02:15:17;20.60;99.90
4904;DHT22;2467;48.142;11.616;2022-07-23T02:15:49;20.60;99.90
4904;DHT22;2467;48.142;11.616;2022-07-23T02:16:20;20.60;99.90
4904;DHT22;2467;48.142;11.616;2022-07-23T02:16:53;20.60;99.90
4904;DHT22;2467;48.142;11.616;2022-07-23T02:17:59;20.60;99.90
4904;DHT22;2467;48.142;11.616;2022-07-23T02:18:31;20.50;99.90
4904;DHT22;2467;48.142;11.616;2022-07-23T02:19:03;20.50;99.90
4904;DHT22;2467;48.142;11.616;2022-07-23T02:19:35;20.50;99.90
4904;DHT22;2467;48.142;11.616;2022-07-23T02:20:10;20.40;99.90
4904;DHT22;2467;48.142;11.616;2022-07-23T02:20:42;20.40;99.90
4904;DHT22;2467;48.142;11.616;2022-07-23T02:21:14;20.30;99.90
4904;DHT22;2467;48.142;11.616;2022-07-23T02:21:47;20.20;99.90
4904;DHT22;2467;48.142;11.616;2022-07-23T02:22:19;20.20;99.90
4904;DHT22;2467;48.142;11.616;2022-07-23T02:22:51;20.10;99.90
4904;DHT22;2467;48.142;11.616;2022-07-23T02:23:25;20.10;99.90
4904;DHT22;2467;48.142;11.616;2022-07-23T02:23:57;20.10;99.90
4904;DHT22;2467;48.142;11.616;2022-07-23T02:24:29;20.10;99.90
4904;DHT22;2467;48.142;11.616;2022-07-23T02:25:02;20.00;99.90
4904;DHT22;2467;48.142;11.616;2022-07-23T02:25:34;20.00;99.90
4904;DHT22;2467;48.142;11.616;2022-07-23T02:26:06;20.10;99.90
4904;DHT22;2467;48.142;11.616;2022-07-23T02:26:39;19.90;99.90
4904;DHT22;2467;48.142;11.616;2022-07-23T02:27:22;20.00;99.90
4904;DHT22;2467;48.142;11.616;2022-07-23T02:27:54;20.00;99.90
4904;DHT22;2467;48.142;11.616;2022-07-23T02:28:27;20.00;99.90
4904;DHT22;2467;48.142;11.616;2022-07-23T02:29:00;20.00;99.90
4904;DHT22;2467;48.142;11.616;2022-07-23T02:29:32;20.00;99.90
4904;DHT22;2467;48.142;11.616;2022-07-23T02:30:06;20.00;99.90
4904;DHT22;2467;48.142;11.616;2022-07-23T02:30:38;20.00;99.90
4904;DHT22;2467;48.142;11.616;2022-07-23T02:31:10;20.00;99.90
4904;DHT22;2467;48.142;11.616;2022-07-23T02:31:43;19.90;99.90
4904;DHT22;2467;48.142;11.616;2022-07-23T02:32:15;19.90;99.90
4904;DHT22;2467;48.142;11.616;2022-07-23T02:32:47;20.00;99.90
4904;DHT22;2467;48.142;11.616;2022-07-23T02:33:20;19.90;99.90
4904;DHT22;2467;48.142;11.616;2022-07-23T02:33:52;19.90;99.90
4904;DHT22;2467;48.142;11.616;2022-07-23T02:34:24;19.80;99.90
4904;DHT22;2467;48.142;11.616;2022-07-23T02:34:57;19.90;99.90
4904;DHT22;2467;48.142;11.616;2022-07-23T02:35:29;19.90;99.90
4904;DHT22;2467;48.142;11.616;2022-07-23T02:36:01;19.90;99.90
4904;DHT22;2467;48.142;11.616;2022-07-23T02:36:34;19.90;99.90
4904;DHT22;2467;48.142;11.616;2022-07-23T02:37:05;20.00;99.90
4904;DHT22;2467;48.142;11.616;2022-07-23T02:37:37;20.00;99.90
4904;DHT22;2467;48.142;11.616;2022-07-23T02:38:10;20.00;99.90
4904;DHT22;2467;48.142;11.616;2022-07-23T02:38:43;20.00;99.90
4904;DHT22;2467;48.142;11.616;2022-07-23T02:39:15;20.00;99.90
4904;DHT22;2467;48.142;11.616;2022-07-23T02:39:48;20.00;99.90
4904;DHT22;2467;48.142;11.616;2022-07-23T02:40:20;20.00;99.90
4904;DHT22;2467;48.142;11.616;2022-07-23T02:40:52;20.00;99.90
4904;DHT22;2467;48.142;11.616;2022-07-23T02:41:25;20.00;99.90
4904;DHT22;2467;48.142;11.616;2022-07-23T02:41:57;20.00;99.90
4904;DHT22;2467;48.142;11.616;2022-07-23T02:42:28;20.10;99.90
4904;DHT22;2467;48.142;11.616;2022-07-23T02:43:00;20.10;99.90
4904;DHT22;2467;48.142;11.616;2022-07-23T02:43:33;20.20;99.90
4904;DHT22;2467;48.142;11.616;2022-07-23T02:44:05;20.20;99.90
4904;DHT22;2467;48.142;11.616;2022-07-23T02:44:37;20.20;99.90
4904;DHT22;2467;48.142;11.616;2022-07-23T02:45:10;20.20;99.90
4904;DHT22;2467;48.142;11.616;2022-07-23T02:45:42;20.30;99.90
4904;DHT22;2467;48.142;11.616;2022-07-23T02:46:14;20.30;99.90
4904;DHT22;2467;48.142;11.616;2022-07-23T02:46:47;20.30;99.90
4904;DHT22;2467;48.142;11.616;2022-07-23T02:47:19;20.30;99.90
4904;DHT22;2467;48.142;11.616;2022-07-23T02:47:51;20.30;99.90
4904;DHT22;2467;48.142;11.616;2022-07-23T02:48:24;20.30;99.90
4904;DHT22;2467;48.142;11.616;2022-07-23T02:48:56;20.30;99.90
4904;DHT22;2467;48.142;11.616;2022-07-23T02:49:27;20.30;99.90
4904;DHT22;2467;48.142;11.616;2022-07-23T02:50:00;20.30;99.90
4904;DHT22;2467;48.142;11.616;2022-07-23T02:50:32;20.40;99.90
4904;DHT22;2467;48.142;11.616;2022-07-23T02:51:04;20.40;99.90
4904;DHT22;2467;48.142;11.616;2022-07-23T02:51:45;20.40;99.90
4904;DHT22;2467;48.142;11.616;2022-07-23T02:52:17;20.30;99.90
4904;DHT22;2467;48.142;11.616;2022-07-23T02:52:49;20.40;99.90
4904;DHT22;2467;48.142;11.616;2022-07-23T02:53:22;20.30;99.90
4904;DHT22;2467;48.142;11.616;2022-07-23T02:53:55;20.40;99.90
4904;DHT22;2467;48.142;11.616;2022-07-23T02:54:27;20.40;99.90
4904;DHT22;2467;48.142;11.616;2022-07-23T02:55:00;20.40;99.90
4904;DHT22;2467;48.142;11.616;2022-07-23T02:55:32;20.40;99.90
4904;DHT22;2467;48.142;11.616;2022-07-23T02:56:04;20.40;99.90
4904;DHT22;2467;48.142;11.616;2022-07-23T02:56:36;20.40;99.90
4904;DHT22;2467;48.142;11.616;2022-07-23T02:57:09;20.30;99.90
4904;DHT22;2467;48.142;11.616;2022-07-23T02:57:40;20.30;99.90
4904;DHT22;2467;48.142;11.616;2022-07-23T02:58:12;20.20;99.90
4904;DHT22;2467;48.142;11.616;2022-07-23T02:58:44;20.20;99.90
4904;DHT22;2467;48.142;11.616;2022-07-23T02:59:17;20.10;99.90
4904;DHT22;2467;48.142;11.616;2022-07-23T02:59:49;20.10;99.90
4904;DHT22;2467;48.142;11.616;2022-07-23T03:00:21;20.10;99.90
4904;DHT22;2467;48.142;11.616;2022-07-23T03:00:54;20.00;99.90
4904;DHT22;2467;48.142;11.616;2022-07-23T03:01:26;20.00;99.90
4904;DHT22;2467;48.142;11.616;2022-07-23T03:01:58;20.00;99.90
4904;DHT22;2467;48.142;11.616;2022-07-23T03:02:31;20.00;99.90
4904;DHT22;2467;48.142;11.616;2022-07-23T03:03:04;20.00;99.90
4904;DHT22;2467;48.142;11.616;2022-07-23T03:03:36;20.00;99.90
4904;DHT22;2467;48.142;11.616;2022-07-23T03:04:08;20.10;99.90
4904;DHT22;2467;48.142;11.616;2022-07-23T03:04:41;20.10;99.90
4904;DHT22;2467;48.142;11.616;2022-07-23T03:05:14;20.10;99.90
4904;DHT22;2467;48.142;11.616;2022-07-23T03:05:47;20.20;99.90
4904;DHT22;2467;48.142;11.616;2022-07-23T03:06:19;20.20;99.90
4904;DHT22;2467;48.142;11.616;2022-07-23T03:06:51;20.30;99.90
4904;DHT22;2467;48.142;11.616;2022-07-23T03:07:23;20.30;99.90
4904;DHT22;2467;48.142;11.616;2022-07-23T03:07:56;20.30;99.90
4904;DHT22;2467;48.142;11.616;2022-07-23T03:08:28;20.30;99.90
4904;DHT22;2467;48.142;11.616;2022-07-23T03:09:02;20.40;99.90
4904;DHT22;2467;48.142;11.616;2022-07-23T03:09:35;20.40;99.90
4904;DHT22;2467;48.142;11.616;2022-07-23T03:10:08;20.30;99.90
4904;DHT22;2467;48.142;11.616;2022-07-23T03:10:40;20.30;99.90
4904;DHT22;2467;48.142;11.616;2022-07-23T03:11:13;20.30;99.90
4904;DHT22;2467;48.142;11.616;2022-07-23T03:11:47;20.30;99.90
4904;DHT22;2467;48.142;11.616;2022-07-23T03:12:19;20.30;99.90
4904;DHT22;2467;48.142;11.616;2022-07-23T03:12:52;20.30;99.90
4904;DHT22;2467;48.142;11.616;2022-07-23T03:13:24;20.30;99.90
4904;DHT22;2467;48.142;11.616;2022-07-23T03:13:57;20.20;99.90
4904;DHT22;2467;48.142;11.616;2022-07-23T03:14:29;20.20;99.90
4904;DHT22;2467;48.142;11.616;2022-07-23T03:15:01;20.30;99.90
4904;DHT22;2467;48.142;11.616;2022-07-23T03:15:34;20.20;99.90
4904;DHT22;2467;48.142;11.616;2022-07-23T03:16:06;20.20;99.90
4904;DHT22;2467;48.142;11.616;2022-07-23T03:16:38;20.20;99.90
4904;DHT22;2467;48.142;11.616;2022-07-23T03:17:11;20.10;99.90
4904;DHT22;2467;48.142;11.616;2022-07-23T03:17:43;20.20;99.90
4904;DHT22;2467;48.142;11.616;2022-07-23T03:18:15;20.20;99.90
4904;DHT22;2467;48.142;11.616;2022-07-23T03:18:48;20.20;99.90
4904;DHT22;2467;48.142;11.616;2022-07-23T03:19:20;20.30;99.90
4904;DHT22;2467;48.142;11.616;2022-07-23T03:19:52;20.30;99.90
4904;DHT22;2467;48.142;11.616;2022-07-23T03:20:25;20.40;99.90
4904;DHT22;2467;48.142;11.616;2022-07-23T03:20:57;20.40;99.90
4904;DHT22;2467;48.142;11.616;2022-07-23T03:21:29;20.50;99.90
4904;DHT22;2467;48.142;11.616;2022-07-23T03:22:02;20.50;99.90
4904;DHT22;2467;48.142;11.616;2022-07-23T03:22:36;20.50;99.90
4904;DHT22;2467;48.142;11.616;2022-07-23T03:23:08;20.50;99.90
4904;DHT22;2467;48.142;11.616;2022-07-23T03:23:41;20.60;99.90
4904;DHT22;2467;48.142;11.616;2022-07-23T03:24:14;20.70;99.90
4904;DHT22;2467;48.142;11.616;2022-07-23T03:24:46;20.50;99.90
4904;DHT22;2467;48.142;11.616;2022-07-23T03:25:28;20.50;99.90
4904;DHT22;2467;48.142;11.616;2022-07-23T03:26:00;20.50;99.90
4904;DHT22;2467;48.142;11.616;2022-07-23T03:26:32;20.50;99.90
4904;DHT22;2467;48.142;11.616;2022-07-23T03:27:05;20.50;99.90
4904;DHT22;2467;48.142;11.616;2022-07-23T03:27:37;20.40;99.90
4904;DHT22;2467;48.142;11.616;2022-07-23T03:28:09;20.40;99.90
4904;DHT22;2467;48.142;11.616;2022-07-23T03:28:41;20.40;99.90
4904;DHT22;2467;48.142;11.616;2022-07-23T03:29:13;20.40;99.90
4904;DHT22;2467;48.142;11.616;2022-07-23T03:29:45;20.40;99.90
4904;DHT22;2467;48.142;11.616;2022-07-23T03:30:17;20.40;99.90
4904;DHT22;2467;48.142;11.616;2022-07-23T03:30:50;20.40;99.90
4904;DHT22;2467;48.142;11.616;2022-07-23T03:31:22;20.30;99.90